sensor_id;sensor_type;location;lat;lon;timestamp;pressure;altitude;pressure_sealevel;temperature;humidity
31225;BME280;17847;31.524;74.366;2022-10-17T00:01:29;98880.81;;;23.75;71.72
31225;BME280;17847;31.524;74.366;2022-10-17T00:04:24;98884.91;;;23.77;71.73
31225;BME280;17847;31.524;74.366;2022-10-17T00:07:00;98879.72;;;23.76;71.77
31225;BME280;17847;31.524;74.366;2022-10-17T00:09:55;98885.19;;;23.76;71.47
31225;BME280;17847;31.524;74.366;2022-10-17T00:12:31;98885.78;;;23.73;71.76
31225;BME280;17847;31.524;74.366;2022-10-17T00:15:27;98892.91;;;23.74;71.70
31225;BME280;17847;31.524;74.366;2022-10-17T00:18:10;98896.00;;;23.67;71.82
31225;BME280;17847;31.524;74.366;2022-10-17T00:20:58;98897.41;;;23.64;71.71
31225;BME280;17847;31.524;74.366;2022-10-17T00:23:41;98898.50;;;23.63;72.02
31225;BME280;17847;31.524;74.366;2022-10-17T00:26:29;98895.19;;;23.67;71.63
31225;BME280;17847;31.524;74.366;2022-10-17T00:29:25;98900.97;;;23.65;71.64
31225;BME280;17847;31.524;74.366;2022-10-17T00:32:07;98900.22;;;23.59;71.72
31225;BME280;17847;31.524;74.366;2022-10-17T00:34:57;98907.84;;;23.62;71.48
31225;BME280;17847;31.524;74.366;2022-10-17T00:37:39;98912.28;;;23.58;72.02
31225;BME280;17847;31.524;74.366;2022-10-17T00:40:28;98909.69;;;23.48;72.09
31225;BME280;17847;31.524;74.366;2022-10-17T00:43:16;98913.03;;;23.45;72.43
31225;BME280;17847;31.524;74.366;2022-10-17T00:46:05;98920.06;;;23.51;72.54
31225;BME280;17847;31.524;74.366;2022-10-17T00:48:50;98919.53;;;23.49;72.03
31225;BME280;17847;31.524;74.366;2022-10-17T00:51:54;98924.88;;;23.59;72.00
31225;BME280;17847;31.524;74.366;2022-10-17T00:54:40;98923.03;;;23.55;71.72
31225;BME280;17847;31.524;74.366;2022-10-17T00:57:31;98924.28;;;23.62;71.22
31225;BME280;17847;31.524;74.366;2022-10-17T01:00:15;98923.91;;;23.50;71.37
31225;BME280;17847;31.524;74.366;2022-10-17T01:03:05;98932.66;;;23.52;71.67
31225;BME280;17847;31.524;74.366;2022-10-17T01:05:48;98932.66;;;23.52;71.17
31225;BME280;17847;31.524;74.366;2022-10-17T01:08:37;98929.97;;;23.47;71.59
31225;BME280;17847;31.524;74.366;2022-10-17T01:11:55;98937.00;;;23.53;71.46
31225;BME280;17847;31.524;74.366;2022-10-17T01:15:12;98935.31;;;23.57;71.27
31225;BME280;17847;31.524;74.366;2022-10-17T01:43:33;98956.22;;;23.72;72.12
31225;BME280;17847;31.524;74.366;2022-10-17T01:46:35;98963.81;;;23.80;72.10
31225;BME280;17847;31.524;74.366;2022-10-17T01:49:21;98961.28;;;23.84;71.90
31225;BME280;17847;31.524;74.366;2022-10-17T01:52:19;98968.13;;;23.87;71.66
31225;BME280;17847;31.524;74.366;2022-10-17T01:55:06;98974.03;;;23.94;72.06
31225;BME280;17847;31.524;74.366;2022-10-17T01:58:08;98968.72;;;24.02;72.31
31225;BME280;17847;31.524;74.366;2022-10-17T02:00:46;98977.28;;;24.15;71.92
31225;BME280;17847;31.524;74.366;2022-10-17T02:03:43;98980.19;;;24.23;72.28
31225;BME280;17847;31.524;74.366;2022-10-17T02:06:27;98979.50;;;24.32;71.47
31225;BME280;17847;31.524;74.366;2022-10-17T02:09:24;98989.28;;;24.38;72.20
31225;BME280;17847;31.524;74.366;2022-10-17T02:12:20;98991.59;;;24.50;71.26
31225;BME280;17847;31.524;74.366;2022-10-17T02:24:34;99006.53;;;24.76;66.56
31225;BME280;17847;31.524;74.366;2022-10-17T02:27:43;99011.25;;;24.90;67.79
31225;BME280;17847;31.524;74.366;2022-10-17T02:33:43;99013.50;;;25.01;68.02
31225;BME280;17847;31.524;74.366;2022-10-17T02:36:45;99012.59;;;25.20;66.16
31225;BME280;17847;31.524;74.366;2022-10-17T02:39:31;99014.91;;;25.32;65.25
31225;BME280;17847;31.524;74.366;2022-10-17T02:42:22;99017.31;;;25.33;67.67
31225;BME280;17847;31.524;74.366;2022-10-17T02:45:06;99020.91;;;25.48;66.56
31225;BME280;17847;31.524;74.366;2022-10-17T02:48:05;99019.38;;;25.55;65.58
31225;BME280;17847;31.524;74.366;2022-10-17T02:57:00;99028.53;;;25.78;65.59
31225;BME280;17847;31.524;74.366;2022-10-17T02:59:50;99025.19;;;25.95;65.08
31225;BME280;17847;31.524;74.366;2022-10-17T03:02:45;99032.09;;;26.07;65.74
31225;BME280;17847;31.524;74.366;2022-10-17T03:05:34;99029.38;;;26.29;62.21
31225;BME280;17847;31.524;74.366;2022-10-17T03:08:17;99035.00;;;26.24;64.73
31225;BME280;17847;31.524;74.366;2022-10-17T03:11:00;99036.63;;;26.48;59.96
31225;BME280;17847;31.524;74.366;2022-10-17T03:13:50;99038.66;;;26.56;59.96
31225;BME280;17847;31.524;74.366;2022-10-17T03:16:32;99031.78;;;26.67;58.11
31225;BME280;17847;31.524;74.366;2022-10-17T03:19:23;99042.78;;;26.90;58.41
31225;BME280;17847;31.524;74.366;2022-10-17T03:22:05;99040.81;;;26.82;59.68
31225;BME280;17847;31.524;74.366;2022-10-17T03:24:54;99049.44;;;27.11;60.03
31225;BME280;17847;31.524;74.366;2022-10-17T03:27:37;99041.16;;;27.11;57.62
31225;BME280;17847;31.524;74.366;2022-10-17T03:30:26;99043.84;;;27.25;57.24
31225;BME280;17847;31.524;74.366;2022-10-17T03:33:08;99048.66;;;27.51;57.83
31225;BME280;17847;31.524;74.366;2022-10-17T03:36:14;99055.50;;;27.53;57.25
31225;BME280;17847;31.524;74.366;2022-10-17T03:38:57;99053.59;;;27.71;56.53
31225;BME280;17847;31.524;74.366;2022-10-17T03:41:47;99056.22;;;27.85;56.21
31225;BME280;17847;31.524;74.366;2022-10-17T03:44:24;99053.78;;;27.84;54.82
31225;BME280;17847;31.524;74.366;2022-10-17T03:47:20;99045.59;;;28.10;52.84
31225;BME280;17847;31.524;74.366;2022-10-17T03:50:03;99056.19;;;28.34;50.87
31225;BME280;17847;31.524;74.366;2022-10-17T03:52:53;99057.50;;;28.72;47.09
31225;BME280;17847;31.524;74.366;2022-10-17T03:55:36;99056.00;;;29.00;45.94
31225;BME280;17847;31.524;74.366;2022-10-17T03:58:31;99051.94;;;29.15;45.37
31225;BME280;17847;31.524;74.366;2022-10-17T04:01:08;99059.25;;;29.20;47.21
31225;BME280;17847;31.524;74.366;2022-10-17T04:04:05;99054.56;;;29.50;46.93
31225;BME280;17847;31.524;74.366;2022-10-17T04:06:44;99057.41;;;29.71;48.05
31225;BME280;17847;31.524;74.366;2022-10-17T04:09:43;99063.84;;;29.93;48.87
31225;BME280;17847;31.524;74.366;2022-10-17T04:12:21;99066.38;;;30.28;44.72
31225;BME280;17847;31.524;74.366;2022-10-17T04:15:17;99058.50;;;30.59;40.05
31225;BME280;17847;31.524;74.366;2022-10-17T04:17:53;99057.50;;;30.76;41.99
31225;BME280;17847;31.524;74.366;2022-10-17T04:20:48;99062.06;;;31.14;38.49
31225;BME280;17847;31.524;74.366;2022-10-17T04:23:31;99062.09;;;31.39;39.98
31225;BME280;17847;31.524;74.366;2022-10-17T04:26:35;99060.22;;;31.76;40.10
31225;BME280;17847;31.524;74.366;2022-10-17T04:29:12;99059.88;;;32.03;39.37
31225;BME280;17847;31.524;74.366;2022-10-17T04:32:16;99061.59;;;32.07;38.46
31225;BME280;17847;31.524;74.366;2022-10-17T04:35:00;99065.28;;;32.11;41.29
31225;BME280;17847;31.524;74.366;2022-10-17T04:38:05;99059.75;;;32.64;37.18
31225;BME280;17847;31.524;74.366;2022-10-17T04:40:49;99051.44;;;32.80;36.65
31225;BME280;17847;31.524;74.366;2022-10-17T04:43:45;99051.56;;;33.00;35.04
31225;BME280;17847;31.524;74.366;2022-10-17T04:46:28;99055.22;;;33.16;36.97
31225;BME280;17847;31.524;74.366;2022-10-17T04:49:17;99045.66;;;33.29;36.61
31225;BME280;17847;31.524;74.366;2022-10-17T04:52:07;99047.44;;;33.38;36.02
31225;BME280;17847;31.524;74.366;2022-10-17T04:54:57;99045.66;;;33.61;38.34
31225;BME280;17847;31.524;74.366;2022-10-17T04:57:40;99039.00;;;33.50;37.92
31225;BME280;17847;31.524;74.366;2022-10-17T05:00:29;99038.22;;;33.65;35.34
31225;BME280;17847;31.524;74.366;2022-10-17T05:03:19;99032.88;;;33.60;37.27
31225;BME280;17847;31.524;74.366;2022-10-17T05:06:20;99044.94;;;33.64;39.70
31225;BME280;17847;31.524;74.366;2022-10-17T05:09:23;99034.91;;;34.11;37.72
31225;BME280;17847;31.524;74.366;2022-10-17T05:12:11;99033.41;;;33.82;35.21
31225;BME280;17847;31.524;74.366;2022-10-17T05:14:54;99032.50;;;33.93;34.74
31225;BME280;17847;31.524;74.366;2022-10-17T05:17:42;99027.78;;;33.46;35.25
31225;BME280;17847;31.524;74.366;2022-10-17T05:20:28;99024.31;;;33.65;38.61
31225;BME280;17847;31.524;74.366;2022-10-17T05:23:16;99030.72;;;33.85;37.26
31225;BME280;17847;31.524;74.366;2022-10-17T05:25:59;99023.44;;;34.32;33.60
31225;BME280;17847;31.524;74.366;2022-10-17T05:28:47;99017.50;;;33.98;36.84
31225;BME280;17847;31.524;74.366;2022-10-17T05:31:32;99017.94;;;34.00;38.56
31225;BME280;17847;31.524;74.366;2022-10-17T05:34:20;99006.50;;;34.21;34.62
31225;BME280;17847;31.524;74.366;2022-10-17T05:37:03;98996.38;;;33.97;33.42
31225;BME280;17847;31.524;74.366;2022-10-17T05:39:55;98993.91;;;33.92;37.65
31225;BME280;17847;31.524;74.366;2022-10-17T05:42:45;98984.94;;;34.57;33.93
31225;BME280;17847;31.524;74.366;2022-10-17T05:45:34;98990.13;;;34.39;38.01
31225;BME280;17847;31.524;74.366;2022-10-17T05:48:20;98986.69;;;34.26;36.28
31225;BME280;17847;31.524;74.366;2022-10-17T05:51:11;98984.56;;;34.59;33.21
31225;BME280;17847;31.524;74.366;2022-10-17T05:53:55;98982.84;;;34.15;30.35
31225;BME280;17847;31.524;74.366;2022-10-17T05:56:43;98985.63;;;34.15;37.04
31225;BME280;17847;31.524;74.366;2022-10-17T05:59:30;98979.78;;;34.59;34.05
31225;BME280;17847;31.524;74.366;2022-10-17T06:02:22;98979.84;;;34.04;31.22
31225;BME280;17847;31.524;74.366;2022-10-17T06:05:06;98977.69;;;34.33;32.43
31225;BME280;17847;31.524;74.366;2022-10-17T06:07:56;98980.97;;;34.19;32.97
31225;BME280;17847;31.524;74.366;2022-10-17T06:10:39;98977.31;;;33.99;31.35
31225;BME280;17847;31.524;74.366;2022-10-17T06:13:34;98975.88;;;33.70;33.11
31225;BME280;17847;31.524;74.366;2022-10-17T06:16:22;98970.31;;;34.05;34.05
31225;BME280;17847;31.524;74.366;2022-10-17T06:19:12;98961.34;;;33.61;32.71
31225;BME280;17847;31.524;74.366;2022-10-17T06:21:48;98965.75;;;33.97;35.86
31225;BME280;17847;31.524;74.366;2022-10-17T06:24:43;98961.88;;;33.82;34.30
31225;BME280;17847;31.524;74.366;2022-10-17T06:27:33;98962.75;;;34.06;31.67
31225;BME280;17847;31.524;74.366;2022-10-17T06:30:28;98962.50;;;34.30;35.22
31225;BME280;17847;31.524;74.366;2022-10-17T06:33:04;98957.16;;;34.22;30.79
31225;BME280;17847;31.524;74.366;2022-10-17T06:35:59;98952.66;;;33.98;29.74
31225;BME280;17847;31.524;74.366;2022-10-17T06:38:36;98949.56;;;34.03;32.34
31225;BME280;17847;31.524;74.366;2022-10-17T06:41:41;98950.13;;;33.57;31.49
31225;BME280;17847;31.524;74.366;2022-10-17T06:44:19;98946.13;;;34.09;34.24
31225;BME280;17847;31.524;74.366;2022-10-17T06:47:37;98936.31;;;33.96;32.08
31225;BME280;17847;31.524;74.366;2022-10-17T06:50:36;98930.06;;;33.48;31.38
31225;BME280;17847;31.524;74.366;2022-10-17T06:53:34;98932.22;;;34.09;33.68
31225;BME280;17847;31.524;74.366;2022-10-17T06:56:30;98925.09;;;34.12;30.83
31225;BME280;17847;31.524;74.366;2022-10-17T06:59:32;98920.56;;;34.23;30.22
31225;BME280;17847;31.524;74.366;2022-10-17T07:02:11;98917.53;;;33.93;29.57
31225;BME280;17847;31.524;74.366;2022-10-17T07:05:09;98918.38;;;34.32;32.67
31225;BME280;17847;31.524;74.366;2022-10-17T07:07:45;98910.44;;;34.35;32.95
31225;BME280;17847;31.524;74.366;2022-10-17T07:10:43;98907.34;;;34.01;29.39
31225;BME280;17847;31.524;74.366;2022-10-17T07:13:26;98903.06;;;34.23;31.76
31225;BME280;17847;31.524;74.366;2022-10-17T07:16:18;98893.88;;;34.22;32.70
31225;BME280;17847;31.524;74.366;2022-10-17T07:19:02;98888.78;;;34.24;35.12
31225;BME280;17847;31.524;74.366;2022-10-17T07:21:59;98887.13;;;34.23;33.42
31225;BME280;17847;31.524;74.366;2022-10-17T07:24:46;98879.88;;;33.80;29.17
31225;BME280;17847;31.524;74.366;2022-10-17T07:27:52;98868.88;;;34.06;33.21
31225;BME280;17847;31.524;74.366;2022-10-17T07:30:48;98867.78;;;34.11;33.53
31225;BME280;17847;31.524;74.366;2022-10-17T07:33:31;98868.72;;;33.99;31.47
31225;BME280;17847;31.524;74.366;2022-10-17T07:36:21;98856.44;;;34.00;29.65
31225;BME280;17847;31.524;74.366;2022-10-17T07:39:06;98852.91;;;33.64;33.08
31225;BME280;17847;31.524;74.366;2022-10-17T07:41:55;98853.06;;;33.91;32.33
31225;BME280;17847;31.524;74.366;2022-10-17T07:44:39;98843.75;;;34.03;31.12
31225;BME280;17847;31.524;74.366;2022-10-17T07:47:28;98832.41;;;33.92;31.98
31225;BME280;17847;31.524;74.366;2022-10-17T07:50:15;98835.19;;;33.92;33.59
31225;BME280;17847;31.524;74.366;2022-10-17T07:53:10;98830.06;;;33.94;31.82
31225;BME280;17847;31.524;74.366;2022-10-17T07:55:46;98818.84;;;33.90;35.43
31225;BME280;17847;31.524;74.366;2022-10-17T07:58:41;98816.81;;;34.10;33.59
31225;BME280;17847;31.524;74.366;2022-10-17T08:01:24;98813.97;;;34.07;32.22
31225;BME280;17847;31.524;74.366;2022-10-17T08:04:13;98802.66;;;33.96;32.99
31225;BME280;17847;31.524;74.366;2022-10-17T08:06:56;98804.25;;;33.97;30.95
31225;BME280;17847;31.524;74.366;2022-10-17T08:09:59;98803.44;;;33.97;30.24
31225;BME280;17847;31.524;74.366;2022-10-17T08:12:55;98803.31;;;33.89;31.85
31225;BME280;17847;31.524;74.366;2022-10-17T08:15:39;98794.94;;;33.89;32.16
31225;BME280;17847;31.524;74.366;2022-10-17T08:18:28;98797.81;;;33.93;33.70
31225;BME280;17847;31.524;74.366;2022-10-17T08:21:11;98786.97;;;33.88;32.90
31225;BME280;17847;31.524;74.366;2022-10-17T08:24:00;98786.84;;;33.81;31.01
31225;BME280;17847;31.524;74.366;2022-10-17T08:26:44;98778.91;;;34.02;33.54
31225;BME280;17847;31.524;74.366;2022-10-17T08:29:33;98780.00;;;34.17;33.71
31225;BME280;17847;31.524;74.366;2022-10-17T08:32:16;98783.59;;;33.98;30.73
31225;BME280;17847;31.524;74.366;2022-10-17T08:35:12;98774.06;;;33.60;29.98
31225;BME280;17847;31.524;74.366;2022-10-17T08:37:58;98766.75;;;33.91;31.08
31225;BME280;17847;31.524;74.366;2022-10-17T08:40:54;98760.50;;;33.74;31.38
31225;BME280;17847;31.524;74.366;2022-10-17T08:43:49;98761.13;;;33.68;32.44
31225;BME280;17847;31.524;74.366;2022-10-17T08:46:46;98749.47;;;33.82;31.43
31225;BME280;17847;31.524;74.366;2022-10-17T08:53:34;98738.66;;;33.77;31.23
31225;BME280;17847;31.524;74.366;2022-10-17T08:56:23;98742.66;;;33.60;31.12
31225;BME280;17847;31.524;74.366;2022-10-17T08:59:29;98739.81;;;33.76;31.05
31225;BME280;17847;31.524;74.366;2022-10-17T09:02:28;98735.13;;;33.80;32.62
31225;BME280;17847;31.524;74.366;2022-10-17T09:05:40;98726.41;;;33.81;32.63
31225;BME280;17847;31.524;74.366;2022-10-17T09:12:36;98719.41;;;33.68;33.83
31225;BME280;17847;31.524;74.366;2022-10-17T09:15:16;98714.03;;;33.79;32.20
31225;BME280;17847;31.524;74.366;2022-10-17T09:18:40;98705.88;;;33.89;31.18
31225;BME280;17847;31.524;74.366;2022-10-17T09:27:34;98691.94;;;33.66;30.87
31225;BME280;17847;31.524;74.366;2022-10-17T09:33:20;98688.84;;;33.32;30.45
31225;BME280;17847;31.524;74.366;2022-10-17T09:36:34;98689.38;;;33.58;32.58
31225;BME280;17847;31.524;74.366;2022-10-17T09:39:21;98688.72;;;33.45;33.75
31225;BME280;17847;31.524;74.366;2022-10-17T09:42:22;98686.00;;;33.48;31.71
31225;BME280;17847;31.524;74.366;2022-10-17T09:45:16;98682.53;;;33.55;31.49
31225;BME280;17847;31.524;74.366;2022-10-17T09:48:34;98679.56;;;33.44;30.89
31225;BME280;17847;31.524;74.366;2022-10-17T09:51:24;98664.22;;;33.31;30.71
31225;BME280;17847;31.524;74.366;2022-10-17T09:54:23;98664.84;;;33.44;31.55
31225;BME280;17847;31.524;74.366;2022-10-17T09:57:05;98664.72;;;33.37;31.95
31225;BME280;17847;31.524;74.366;2022-10-17T10:00:05;98669.56;;;33.20;31.48
31225;BME280;17847;31.524;74.366;2022-10-17T10:06:17;98662.41;;;33.19;31.54
31225;BME280;17847;31.524;74.366;2022-10-17T10:09:00;98661.34;;;33.08;31.75
31225;BME280;17847;31.524;74.366;2022-10-17T10:11:57;98654.34;;;33.14;29.70
31225;BME280;17847;31.524;74.366;2022-10-17T10:14:40;98646.44;;;33.16;32.24
31225;BME280;17847;31.524;74.366;2022-10-17T10:17:38;98644.19;;;32.86;33.59
31225;BME280;17847;31.524;74.366;2022-10-17T10:20:35;98641.56;;;32.93;31.70
31225;BME280;17847;31.524;74.366;2022-10-17T10:23:30;98648.88;;;33.02;31.93
31225;BME280;17847;31.524;74.366;2022-10-17T10:26:21;98637.91;;;32.89;32.99
31225;BME280;17847;31.524;74.366;2022-10-17T10:35:42;98641.84;;;32.88;34.23
31225;BME280;17847;31.524;74.366;2022-10-17T10:38:33;98632.34;;;32.70;33.58
31225;BME280;17847;31.524;74.366;2022-10-17T10:41:23;98631.75;;;32.61;36.54
31225;BME280;17847;31.524;74.366;2022-10-17T10:44:13;98630.41;;;32.38;40.01
31225;BME280;17847;31.524;74.366;2022-10-17T10:47:23;98627.09;;;32.49;35.84
31225;BME280;17847;31.524;74.366;2022-10-17T10:53:28;98624.94;;;32.42;37.75
31225;BME280;17847;31.524;74.366;2022-10-17T10:56:21;98633.94;;;32.19;37.28
31225;BME280;17847;31.524;74.366;2022-10-17T10:59:27;98632.81;;;32.05;36.11
31225;BME280;17847;31.524;74.366;2022-10-17T11:02:32;98626.78;;;32.18;33.20
31225;BME280;17847;31.524;74.366;2022-10-17T11:08:32;98623.00;;;32.27;32.94
31225;BME280;17847;31.524;74.366;2022-10-17T11:11:29;98632.44;;;32.06;36.03
31225;BME280;17847;31.524;74.366;2022-10-17T11:14:18;98635.09;;;31.87;39.08
31225;BME280;17847;31.524;74.366;2022-10-17T11:17:41;98631.25;;;31.75;40.07
31225;BME280;17847;31.524;74.366;2022-10-17T11:21:12;98643.03;;;31.56;39.18
31225;BME280;17847;31.524;74.366;2022-10-17T11:23:47;98636.97;;;31.67;39.75
31225;BME280;17847;31.524;74.366;2022-10-17T11:26:34;98633.47;;;31.54;40.27
31225;BME280;17847;31.524;74.366;2022-10-17T11:29:34;98638.56;;;31.52;39.01
31225;BME280;17847;31.524;74.366;2022-10-17T11:32:26;98630.03;;;31.45;43.07
31225;BME280;17847;31.524;74.366;2022-10-17T11:35:27;98626.88;;;31.30;42.42
31225;BME280;17847;31.524;74.366;2022-10-17T11:41:10;98624.56;;;31.04;43.41
31225;BME280;17847;31.524;74.366;2022-10-17T11:43:58;98626.34;;;30.84;45.37
31225;BME280;17847;31.524;74.366;2022-10-17T11:53:44;98617.66;;;30.45;45.09
31225;BME280;17847;31.524;74.366;2022-10-17T11:59:52;98623.41;;;30.40;46.61
31225;BME280;17847;31.524;74.366;2022-10-17T12:11:55;98613.63;;;30.05;46.84
31225;BME280;17847;31.524;74.366;2022-10-17T12:14:52;98618.59;;;29.88;46.70
31225;BME280;17847;31.524;74.366;2022-10-17T12:17:33;98615.81;;;29.88;46.82
31225;BME280;17847;31.524;74.366;2022-10-17T12:20:34;98616.03;;;29.82;46.21
31225;BME280;17847;31.524;74.366;2022-10-17T12:23:22;98618.13;;;29.73;45.98
31225;BME280;17847;31.524;74.366;2022-10-17T12:26:25;98616.22;;;29.65;44.73
31225;BME280;17847;31.524;74.366;2022-10-17T12:29:25;98619.91;;;29.57;47.13
31225;BME280;17847;31.524;74.366;2022-10-17T12:32:22;98622.63;;;29.44;47.12
31225;BME280;17847;31.524;74.366;2022-10-17T12:35:19;98613.84;;;29.30;48.25
31225;BME280;17847;31.524;74.366;2022-10-17T12:38:23;98616.69;;;29.21;45.61
31225;BME280;17847;31.524;74.366;2022-10-17T12:41:06;98618.44;;;29.05;48.40
31225;BME280;17847;31.524;74.366;2022-10-17T12:43:54;98616.53;;;28.97;48.51
31225;BME280;17847;31.524;74.366;2022-10-17T12:49:57;98618.00;;;28.82;47.99
31225;BME280;17847;31.524;74.366;2022-10-17T12:55:28;98612.63;;;28.64;48.23
31225;BME280;17847;31.524;74.366;2022-10-17T12:58:15;98617.44;;;28.67;48.86
31225;BME280;17847;31.524;74.366;2022-10-17T13:01:04;98616.50;;;28.63;47.66
31225;BME280;17847;31.524;74.366;2022-10-17T13:03:57;98622.13;;;28.46;49.02
31225;BME280;17847;31.524;74.366;2022-10-17T13:06:56;98615.34;;;28.43;49.03
31225;BME280;17847;31.524;74.366;2022-10-17T13:09:43;98624.44;;;28.35;49.46
31225;BME280;17847;31.524;74.366;2022-10-17T13:12:34;98629.84;;;28.31;50.07
31225;BME280;17847;31.524;74.366;2022-10-17T13:15:19;98628.41;;;28.25;50.31
31225;BME280;17847;31.524;74.366;2022-10-17T13:18:23;98632.97;;;28.21;49.59
31225;BME280;17847;31.524;74.366;2022-10-17T13:21:14;98628.84;;;28.06;49.51
31225;BME280;17847;31.524;74.366;2022-10-17T13:28:12;98644.81;;;27.83;51.96
31225;BME280;17847;31.524;74.366;2022-10-17T13:31:35;98642.06;;;27.83;51.02
31225;BME280;17847;31.524;74.366;2022-10-17T13:34:21;98640.16;;;27.75;51.98
31225;BME280;17847;31.524;74.366;2022-10-17T13:37:14;98642.91;;;27.75;51.58
31225;BME280;17847;31.524;74.366;2022-10-17T13:39:57;98655.91;;;27.66;51.15
31225;BME280;17847;31.524;74.366;2022-10-17T13:43:14;98653.16;;;27.66;51.23
31225;BME280;17847;31.524;74.366;2022-10-17T13:46:00;98652.19;;;27.62;51.95
31225;BME280;17847;31.524;74.366;2022-10-17T13:49:34;98661.94;;;27.59;51.97
31225;BME280;17847;31.524;74.366;2022-10-17T13:52:21;98661.94;;;27.59;52.78
31225;BME280;17847;31.524;74.366;2022-10-17T13:55:16;98666.81;;;27.53;52.93
31225;BME280;17847;31.524;74.366;2022-10-17T13:58:16;98666.28;;;27.51;52.79
31225;BME280;17847;31.524;74.366;2022-10-17T14:01:07;98668.56;;;27.49;54.06
31225;BME280;17847;31.524;74.366;2022-10-17T14:03:50;98670.56;;;27.40;55.07
31225;BME280;17847;31.524;74.366;2022-10-17T14:06:51;98675.91;;;27.37;55.50
31225;BME280;17847;31.524;74.366;2022-10-17T14:09:34;98665.06;;;27.40;55.43
31225;BME280;17847;31.524;74.366;2022-10-17T14:12:26;98666.16;;;27.39;55.58
31225;BME280;17847;31.524;74.366;2022-10-17T14:15:33;98673.63;;;27.39;54.83
31225;BME280;17847;31.524;74.366;2022-10-17T14:18:34;98672.16;;;27.41;53.65
31225;BME280;17847;31.524;74.366;2022-10-17T14:21:24;98680.91;;;27.43;53.00
31225;BME280;17847;31.524;74.366;2022-10-17T14:24:27;98675.41;;;27.43;52.76
31225;BME280;17847;31.524;74.366;2022-10-17T14:27:28;98671.03;;;27.42;52.15
31225;BME280;17847;31.524;74.366;2022-10-17T14:33:30;98678.16;;;27.43;51.03
31225;BME280;17847;31.524;74.366;2022-10-17T14:36:40;98677.03;;;27.44;52.70
31225;BME280;17847;31.524;74.366;2022-10-17T14:39:26;98689.03;;;27.31;53.02
31225;BME280;17847;31.524;74.366;2022-10-17T14:42:22;98684.34;;;27.40;52.34
31225;BME280;17847;31.524;74.366;2022-10-17T14:45:08;98686.63;;;27.38;52.12
31225;BME280;17847;31.524;74.366;2022-10-17T14:48:12;98684.03;;;27.33;52.33
31225;BME280;17847;31.524;74.366;2022-10-17T14:51:12;98683.34;;;27.36;52.05
31225;BME280;17847;31.524;74.366;2022-10-17T14:54:23;98697.13;;;27.36;53.21
31225;BME280;17847;31.524;74.366;2022-10-17T15:00:17;98694.19;;;27.24;54.45
31225;BME280;17847;31.524;74.366;2022-10-17T15:03:00;98691.59;;;27.19;54.58
31225;BME280;17847;31.524;74.366;2022-10-17T15:05:50;98690.78;;;27.18;55.61
31225;BME280;17847;31.524;74.366;2022-10-17T15:08:33;98693.06;;;27.07;55.32
31225;BME280;17847;31.524;74.366;2022-10-17T15:11:22;98697.13;;;27.01;55.48
31225;BME280;17847;31.524;74.366;2022-10-17T15:14:05;98696.31;;;27.01;55.54
31225;BME280;17847;31.524;74.366;2022-10-17T15:16:53;98701.66;;;26.97;56.69
31225;BME280;17847;31.524;74.366;2022-10-17T15:19:36;98697.09;;;26.84;56.84
31225;BME280;17847;31.524;74.366;2022-10-17T15:22:29;98706.34;;;26.79;56.84
31225;BME280;17847;31.524;74.366;2022-10-17T15:25:28;98706.16;;;26.75;57.24
31225;BME280;17847;31.524;74.366;2022-10-17T15:28:24;98702.28;;;26.76;57.31
31225;BME280;17847;31.524;74.366;2022-10-17T15:31:22;98705.34;;;26.66;57.82
31225;BME280;17847;31.524;74.366;2022-10-17T15:34:05;98710.34;;;26.64;58.71
31225;BME280;17847;31.524;74.366;2022-10-17T15:36:53;98710.50;;;26.59;58.71
31225;BME280;17847;31.524;74.366;2022-10-17T15:39:54;98716.09;;;26.54;59.36
31225;BME280;17847;31.524;74.366;2022-10-17T15:43:02;98710.47;;;26.50;58.54
31225;BME280;17847;31.524;74.366;2022-10-17T15:45:48;98712.25;;;26.55;59.19
31225;BME280;17847;31.524;74.366;2022-10-17T15:48:36;98718.22;;;26.57;58.76
31225;BME280;17847;31.524;74.366;2022-10-17T15:51:19;98714.00;;;26.51;59.04
31225;BME280;17847;31.524;74.366;2022-10-17T15:54:08;98723.38;;;26.50;58.82
31225;BME280;17847;31.524;74.366;2022-10-17T15:56:52;98718.00;;;26.27;59.44
31225;BME280;17847;31.524;74.366;2022-10-17T15:59:50;98722.41;;;26.37;59.01
31225;BME280;17847;31.524;74.366;2022-10-17T16:02:35;98713.78;;;26.38;59.29
31225;BME280;17847;31.524;74.366;2022-10-17T16:05:24;98718.97;;;26.31;58.93
31225;BME280;17847;31.524;74.366;2022-10-17T16:08:08;98711.66;;;26.27;59.07
31225;BME280;17847;31.524;74.366;2022-10-17T16:10:56;98712.13;;;26.20;58.95
31225;BME280;17847;31.524;74.366;2022-10-17T16:13:39;98716.66;;;26.16;57.96
31225;BME280;17847;31.524;74.366;2022-10-17T16:16:28;98710.31;;;26.15;59.25
31225;BME280;17847;31.524;74.366;2022-10-17T16:19:11;98714.53;;;26.13;59.04
31225;BME280;17847;31.524;74.366;2022-10-17T16:22:01;98716.47;;;26.12;58.74
31225;BME280;17847;31.524;74.366;2022-10-17T16:24:45;98713.91;;;26.16;59.35
31225;BME280;17847;31.524;74.366;2022-10-17T16:27:39;98715.63;;;26.12;59.18
31225;BME280;17847;31.524;74.366;2022-10-17T16:30:32;98718.53;;;26.07;60.01
31225;BME280;17847;31.524;74.366;2022-10-17T16:33:16;98713.66;;;26.04;59.66
31225;BME280;17847;31.524;74.366;2022-10-17T16:36:04;98718.97;;;25.91;60.64
31225;BME280;17847;31.524;74.366;2022-10-17T16:38:48;98722.56;;;25.78;60.96
31225;BME280;17847;31.524;74.366;2022-10-17T16:41:38;98725.81;;;25.80;60.51
31225;BME280;17847;31.524;74.366;2022-10-17T16:44:21;98714.16;;;25.83;61.15
31225;BME280;17847;31.524;74.366;2022-10-17T16:47:17;98715.25;;;25.73;60.73
31225;BME280;17847;31.524;74.366;2022-10-17T16:49:53;98724.53;;;25.55;59.86
31225;BME280;17847;31.524;74.366;2022-10-17T16:52:48;98722.81;;;25.68;61.25